sensor_id;sensor_type;location;lat;lon;timestamp;temperature;humidity
774;DHT22;370;48.810;9.150;2024-02-21T00:01:48;7.70;1.00
774;DHT22;370;48.810;9.150;2024-02-21T00:04:15;7.70;1.00
774;DHT22;370;48.810;9.150;2024-02-21T00:06:43;7.50;1.00
774;DHT22;370;48.810;9.150;2024-02-21T00:09:10;7.50;1.00
774;DHT22;370;48.810;9.150;2024-02-21T00:11:37;7.50;1.00
774;DHT22;370;48.810;9.150;2024-02-21T00:14:04;7.40;1.00
774;DHT22;370;48.810;9.150;2024-02-21T00:16:30;7.40;1.00
774;DHT22;370;48.810;9.150;2024-02-21T00:18:57;7.40;1.00
774;DHT22;370;48.810;9.150;2024-02-21T00:21:24;7.40;1.00
774;DHT22;370;48.810;9.150;2024-02-21T00:23:52;7.50;1.00
774;DHT22;370;48.810;9.150;2024-02-21T00:26:19;7.50;1.00
774;DHT22;370;48.810;9.150;2024-02-21T00:28:46;7.50;1.00
774;DHT22;370;48.810;9.150;2024-02-21T00:31:12;7.50;1.00
774;DHT22;370;48.810;9.150;2024-02-21T00:33:39;7.60;1.00
774;DHT22;370;48.810;9.150;2024-02-21T00:36:07;7.60;1.00
774;DHT22;370;48.810;9.150;2024-02-21T00:38:33;7.60;1.00
774;DHT22;370;48.810;9.150;2024-02-21T00:41:01;7.60;1.00
774;DHT22;370;48.810;9.150;2024-02-21T00:43:28;7.70;1.00
774;DHT22;370;48.810;9.150;2024-02-21T00:45:55;7.70;1.00
774;DHT22;370;48.810;9.150;2024-02-21T00:48:22;7.70;1.00
774;DHT22;370;48.810;9.150;2024-02-21T00:50:48;7.70;1.00
774;DHT22;370;48.810;9.150;2024-02-21T00:53:15;7.60;1.00
774;DHT22;370;48.810;9.150;2024-02-21T00:55:42;7.60;1.00
774;DHT22;370;48.810;9.150;2024-02-21T00:58:10;7.60;1.00
774;DHT22;370;48.810;9.150;2024-02-21T01:00:37;7.60;1.00
774;DHT22;370;48.810;9.150;2024-02-21T01:03:04;7.60;1.00
774;DHT22;370;48.810;9.150;2024-02-21T01:05:30;7.50;1.00
774;DHT22;370;48.810;9.150;2024-02-21T01:07:58;7.50;1.00
774;DHT22;370;48.810;9.150;2024-02-21T01:10:25;7.50;1.00
774;DHT22;370;48.810;9.150;2024-02-21T01:12:51;7.40;1.00
774;DHT22;370;48.810;9.150;2024-02-21T01:15:19;7.40;1.00
774;DHT22;370;48.810;9.150;2024-02-21T01:17:46;7.30;1.00
774;DHT22;370;48.810;9.150;2024-02-21T01:20:13;7.40;1.00
774;DHT22;370;48.810;9.150;2024-02-21T01:22:39;7.40;1.00
774;DHT22;370;48.810;9.150;2024-02-21T01:25:07;7.30;1.00
774;DHT22;370;48.810;9.150;2024-02-21T01:27:34;7.40;1.00
774;DHT22;370;48.810;9.150;2024-02-21T01:30:00;7.40;1.00
774;DHT22;370;48.810;9.150;2024-02-21T01:32:28;7.40;1.00
774;DHT22;370;48.810;9.150;2024-02-21T01:34:55;7.40;1.00
774;DHT22;370;48.810;9.150;2024-02-21T01:37:22;7.40;1.00
774;DHT22;370;48.810;9.150;2024-02-21T01:39:48;7.40;1.00
774;DHT22;370;48.810;9.150;2024-02-21T01:42:16;7.40;1.00
774;DHT22;370;48.810;9.150;2024-02-21T01:44:42;7.40;1.00
774;DHT22;370;48.810;9.150;2024-02-21T01:47:10;7.40;1.00
774;DHT22;370;48.810;9.150;2024-02-21T01:49:40;7.40;1.00
774;DHT22;370;48.810;9.150;2024-02-21T01:52:07;7.40;1.00
774;DHT22;370;48.810;9.150;2024-02-21T01:54:34;7.40;1.00
774;DHT22;370;48.810;9.150;2024-02-21T01:57:01;7.40;1.00
774;DHT22;370;48.810;9.150;2024-02-21T01:59:28;7.50;1.00
774;DHT22;370;48.810;9.150;2024-02-21T02:01:55;7.40;1.00
774;DHT22;370;48.810;9.150;2024-02-21T02:04:23;7.50;1.00
774;DHT22;370;48.810;9.150;2024-02-21T02:06:53;7.50;1.00
774;DHT22;370;48.810;9.150;2024-02-21T02:09:20;7.50;1.00
774;DHT22;370;48.810;9.150;2024-02-21T02:11:47;7.50;1.00
774;DHT22;370;48.810;9.150;2024-02-21T02:14:14;7.60;1.00
774;DHT22;370;48.810;9.150;2024-02-21T02:16:40;7.60;1.00
774;DHT22;370;48.810;9.150;2024-02-21T02:19:07;7.60;1.00
774;DHT22;370;48.810;9.150;2024-02-21T02:21:39;7.60;1.00
774;DHT22;370;48.810;9.150;2024-02-21T02:24:09;7.60;1.00
774;DHT22;370;48.810;9.150;2024-02-21T02:26:36;7.60;1.00
774;DHT22;370;48.810;9.150;2024-02-21T02:29:03;7.60;1.00
774;DHT22;370;48.810;9.150;2024-02-21T02:31:29;7.70;1.00
774;DHT22;370;48.810;9.150;2024-02-21T02:33:56;7.70;1.00
774;DHT22;370;48.810;9.150;2024-02-21T02:36:23;7.70;1.00
774;DHT22;370;48.810;9.150;2024-02-21T02:38:50;7.80;1.00
774;DHT22;370;48.810;9.150;2024-02-21T02:41:18;7.80;1.00
774;DHT22;370;48.810;9.150;2024-02-21T02:43:44;7.80;1.00
774;DHT22;370;48.810;9.150;2024-02-21T02:46:11;7.80;1.00
774;DHT22;370;48.810;9.150;2024-02-21T02:48:38;7.70;1.00
774;DHT22;370;48.810;9.150;2024-02-21T02:51:04;7.70;1.00
774;DHT22;370;48.810;9.150;2024-02-21T02:53:31;7.60;1.00
774;DHT22;370;48.810;9.150;2024-02-21T02:55:58;7.60;1.00
774;DHT22;370;48.810;9.150;2024-02-21T02:58:26;7.50;1.00
774;DHT22;370;48.810;9.150;2024-02-21T03:00:52;7.40;2.20
774;DHT22;370;48.810;9.150;2024-02-21T03:03:19;7.30;3.10
774;DHT22;370;48.810;9.150;2024-02-21T03:05:46;7.30;5.80
774;DHT22;370;48.810;9.150;2024-02-21T03:08:12;7.30;7.30
774;DHT22;370;48.810;9.150;2024-02-21T03:10:40;7.30;8.50
774;DHT22;370;48.810;9.150;2024-02-21T03:13:06;7.30;9.50
774;DHT22;370;48.810;9.150;2024-02-21T03:15:34;7.30;9.30
774;DHT22;370;48.810;9.150;2024-02-21T03:18:01;7.40;6.50
774;DHT22;370;48.810;9.150;2024-02-21T03:20:28;7.30;6.10
774;DHT22;370;48.810;9.150;2024-02-21T03:22:54;7.30;8.20
774;DHT22;370;48.810;9.150;2024-02-21T03:25:21;7.20;7.60
774;DHT22;370;48.810;9.150;2024-02-21T03:27:48;7.20;7.30
774;DHT22;370;48.810;9.150;2024-02-21T03:30:15;7.10;8.10
774;DHT22;370;48.810;9.150;2024-02-21T03:32:43;7.10;7.90
774;DHT22;370;48.810;9.150;2024-02-21T03:35:10;7.10;7.70
774;DHT22;370;48.810;9.150;2024-02-21T03:37:36;7.00;7.10
774;DHT22;370;48.810;9.150;2024-02-21T03:40:07;7.00;5.90
774;DHT22;370;48.810;9.150;2024-02-21T03:42:34;7.00;6.50
774;DHT22;370;48.810;9.150;2024-02-21T03:45:01;7.00;5.50
774;DHT22;370;48.810;9.150;2024-02-21T03:47:27;7.00;5.10
774;DHT22;370;48.810;9.150;2024-02-21T03:49:55;7.00;6.10
774;DHT22;370;48.810;9.150;2024-02-21T03:52:23;7.10;6.50
774;DHT22;370;48.810;9.150;2024-02-21T03:54:50;7.20;5.40
774;DHT22;370;48.810;9.150;2024-02-21T03:57:16;7.20;5.50
774;DHT22;370;48.810;9.150;2024-02-21T03:59:43;7.30;4.60
774;DHT22;370;48.810;9.150;2024-02-21T04:02:10;7.30;4.00
774;DHT22;370;48.810;9.150;2024-02-21T04:04:37;7.30;4.50
774;DHT22;370;48.810;9.150;2024-02-21T04:07:05;7.20;4.00
774;DHT22;370;48.810;9.150;2024-02-21T04:09:32;7.20;5.00
774;DHT22;370;48.810;9.150;2024-02-21T04:12:00;7.30;5.30
774;DHT22;370;48.810;9.150;2024-02-21T04:14:27;7.40;5.60
774;DHT22;370;48.810;9.150;2024-02-21T04:16:54;7.10;5.20
774;DHT22;370;48.810;9.150;2024-02-21T04:19:20;7.10;5.30
774;DHT22;370;48.810;9.150;2024-02-21T04:21:47;7.00;5.40
774;DHT22;370;48.810;9.150;2024-02-21T04:24:15;6.80;7.30
774;DHT22;370;48.810;9.150;2024-02-21T04:26:42;6.80;8.50
774;DHT22;370;48.810;9.150;2024-02-21T04:29:09;6.80;8.90
774;DHT22;370;48.810;9.150;2024-02-21T04:31:35;6.80;8.20
774;DHT22;370;48.810;9.150;2024-02-21T04:34:02;6.90;7.70
774;DHT22;370;48.810;9.150;2024-02-21T04:36:29;6.90;7.30
774;DHT22;370;48.810;9.150;2024-02-21T04:38:56;6.80;8.60
774;DHT22;370;48.810;9.150;2024-02-21T04:41:24;6.80;9.50
774;DHT22;370;48.810;9.150;2024-02-21T04:43:50;6.80;8.90
774;DHT22;370;48.810;9.150;2024-02-21T04:46:17;6.80;8.10
774;DHT22;370;48.810;9.150;2024-02-21T04:48:44;6.80;7.80
774;DHT22;370;48.810;9.150;2024-02-21T04:51:11;6.80;7.80
774;DHT22;370;48.810;9.150;2024-02-21T04:53:38;6.80;8.30
774;DHT22;370;48.810;9.150;2024-02-21T04:56:05;6.80;8.70
774;DHT22;370;48.810;9.150;2024-02-21T04:58:37;6.70;7.40
774;DHT22;370;48.810;9.150;2024-02-21T05:01:03;6.60;6.70
774;DHT22;370;48.810;9.150;2024-02-21T05:03:30;6.50;6.20
774;DHT22;370;48.810;9.150;2024-02-21T05:05:57;6.50;7.00
774;DHT22;370;48.810;9.150;2024-02-21T05:08:23;6.40;7.50
774;DHT22;370;48.810;9.150;2024-02-21T05:10:50;6.30;7.90
774;DHT22;370;48.810;9.150;2024-02-21T05:13:17;6.20;7.80
774;DHT22;370;48.810;9.150;2024-02-21T05:15:45;6.20;8.00
774;DHT22;370;48.810;9.150;2024-02-21T05:18:11;6.00;7.70
774;DHT22;370;48.810;9.150;2024-02-21T05:20:38;5.90;8.50
774;DHT22;370;48.810;9.150;2024-02-21T05:23:05;5.80;9.10
774;DHT22;370;48.810;9.150;2024-02-21T05:25:31;5.80;9.60
774;DHT22;370;48.810;9.150;2024-02-21T05:27:58;5.80;8.60
774;DHT22;370;48.810;9.150;2024-02-21T05:30:27;5.80;8.80
774;DHT22;370;48.810;9.150;2024-02-21T05:32:55;5.80;9.00
774;DHT22;370;48.810;9.150;2024-02-21T05:35:25;5.90;9.10
774;DHT22;370;48.810;9.150;2024-02-21T05:37:52;5.90;7.30
774;DHT22;370;48.810;9.150;2024-02-21T05:40:19;5.90;5.70
774;DHT22;370;48.810;9.150;2024-02-21T05:42:45;6.00;5.50
774;DHT22;370;48.810;9.150;2024-02-21T05:45:12;6.00;4.80
774;DHT22;370;48.810;9.150;2024-02-21T05:47:41;6.00;3.20
774;DHT22;370;48.810;9.150;2024-02-21T05:50:09;6.00;3.20
774;DHT22;370;48.810;9.150;2024-02-21T05:52:36;6.10;2.30
774;DHT22;370;48.810;9.150;2024-02-21T05:55:04;6.10;2.00
774;DHT22;370;48.810;9.150;2024-02-21T05:57:30;6.20;1.30
774;DHT22;370;48.810;9.150;2024-02-21T05:59:57;6.20;1.00
774;DHT22;370;48.810;9.150;2024-02-21T06:02:24;6.20;1.00
774;DHT22;370;48.810;9.150;2024-02-21T06:04:50;6.20;1.00
774;DHT22;370;48.810;9.150;2024-02-21T06:07:18;6.20;1.00
774;DHT22;370;48.810;9.150;2024-02-21T06:09:45;6.10;1.00
774;DHT22;370;48.810;9.150;2024-02-21T06:12:12;6.10;1.00
774;DHT22;370;48.810;9.150;2024-02-21T06:14:38;6.10;1.00
774;DHT22;370;48.810;9.150;2024-02-21T06:17:05;6.10;1.00
774;DHT22;370;48.810;9.150;2024-02-21T06:19:32;6.10;1.00
774;DHT22;370;48.810;9.150;2024-02-21T06:21:59;6.10;1.00
774;DHT22;370;48.810;9.150;2024-02-21T06:24:27;6.10;1.00
774;DHT22;370;48.810;9.150;2024-02-21T06:26:53;6.10;1.00
774;DHT22;370;48.810;9.150;2024-02-21T06:29:20;6.10;1.00
774;DHT22;370;48.810;9.150;2024-02-21T06:31:47;6.10;1.00
774;DHT22;370;48.810;9.150;2024-02-21T06:34:14;6.10;1.00
774;DHT22;370;48.810;9.150;2024-02-21T06:36:42;6.10;1.00
774;DHT22;370;48.810;9.150;2024-02-21T06:39:09;6.20;1.00
774;DHT22;370;48.810;9.150;2024-02-21T06:41:38;6.20;1.00
774;DHT22;370;48.810;9.150;2024-02-21T06:44:05;6.20;1.00
774;DHT22;370;48.810;9.150;2024-02-21T06:46:32;6.30;1.00
774;DHT22;370;48.810;9.150;2024-02-21T06:49:00;6.30;1.00
774;DHT22;370;48.810;9.150;2024-02-21T06:51:27;6.30;1.00
774;DHT22;370;48.810;9.150;2024-02-21T06:53:54;6.40;1.00
774;DHT22;370;48.810;9.150;2024-02-21T06:56:23;6.50;1.00
774;DHT22;370;48.810;9.150;2024-02-21T06:58:53;6.60;1.00
774;DHT22;370;48.810;9.150;2024-02-21T07:01:20;6.70;1.00
774;DHT22;370;48.810;9.150;2024-02-21T07:03:47;6.70;1.00
774;DHT22;370;48.810;9.150;2024-02-21T07:06:13;6.80;1.00
774;DHT22;370;48.810;9.150;2024-02-21T07:08:40;6.90;1.00
774;DHT22;370;48.810;9.150;2024-02-21T07:11:07;7.00;1.00
774;DHT22;370;48.810;9.150;2024-02-21T07:13:34;7.00;1.00
774;DHT22;370;48.810;9.150;2024-02-21T07:16:02;7.10;1.00
774;DHT22;370;48.810;9.150;2024-02-21T07:18:28;7.20;1.00
774;DHT22;370;48.810;9.150;2024-02-21T07:20:55;7.30;1.00
774;DHT22;370;48.810;9.150;2024-02-21T07:23:22;7.40;1.00
774;DHT22;370;48.810;9.150;2024-02-21T07:25:49;7.70;1.00
774;DHT22;370;48.810;9.150;2024-02-21T07:28:15;8.00;1.00
774;DHT22;370;48.810;9.150;2024-02-21T07:30:42;8.40;1.00
774;DHT22;370;48.810;9.150;2024-02-21T07:33:11;9.10;1.00
774;DHT22;370;48.810;9.150;2024-02-21T07:35:37;9.60;1.00
774;DHT22;370;48.810;9.150;2024-02-21T07:38:06;10.20;1.00
774;DHT22;370;48.810;9.150;2024-02-21T07:40:34;10.80;1.00
774;DHT22;370;48.810;9.150;2024-02-21T07:43:01;11.60;1.00
774;DHT22;370;48.810;9.150;2024-02-21T07:45:27;12.10;1.00
774;DHT22;370;48.810;9.150;2024-02-21T07:47:54;12.60;1.00
774;DHT22;370;48.810;9.150;2024-02-21T07:50:22;12.50;1.00
774;DHT22;370;48.810;9.150;2024-02-21T07:52:49;12.30;1.00
774;DHT22;370;48.810;9.150;2024-02-21T07:55:16;11.80;1.00
774;DHT22;370;48.810;9.150;2024-02-21T07:57:42;11.80;1.00
774;DHT22;370;48.810;9.150;2024-02-21T08:00:10;11.80;1.00
774;DHT22;370;48.810;9.150;2024-02-21T08:02:42;11.60;1.00
774;DHT22;370;48.810;9.150;2024-02-21T08:05:09;11.70;1.00
774;DHT22;370;48.810;9.150;2024-02-21T08:07:39;11.70;1.00
774;DHT22;370;48.810;9.150;2024-02-21T08:10:07;11.60;1.00
774;DHT22;370;48.810;9.150;2024-02-21T08:12:34;11.50;1.00
774;DHT22;370;48.810;9.150;2024-02-21T08:15:00;11.20;1.00
774;DHT22;370;48.810;9.150;2024-02-21T08:17:28;11.30;1.00
774;DHT22;370;48.810;9.150;2024-02-21T08:19:55;11.30;1.00
774;DHT22;370;48.810;9.150;2024-02-21T08:22:22;11.50;1.00
774;DHT22;370;48.810;9.150;2024-02-21T08:24:50;11.80;1.00
774;DHT22;370;48.810;9.150;2024-02-21T08:27:16;11.90;1.00
774;DHT22;370;48.810;9.150;2024-02-21T08:29:43;12.10;1.00
774;DHT22;370;48.810;9.150;2024-02-21T08:32:10;12.40;1.00
774;DHT22;370;48.810;9.150;2024-02-21T08:34:36;12.80;1.00
774;DHT22;370;48.810;9.150;2024-02-21T08:37:03;13.20;1.00
774;DHT22;370;48.810;9.150;2024-02-21T08:39:30;13.60;1.00
774;DHT22;370;48.810;9.150;2024-02-21T08:41:58;13.80;1.00
774;DHT22;370;48.810;9.150;2024-02-21T08:44:28;13.90;1.00
774;DHT22;370;48.810;9.150;2024-02-21T08:46:54;13.80;1.00
774;DHT22;370;48.810;9.150;2024-02-21T08:49:21;13.90;1.00
774;DHT22;370;48.810;9.150;2024-02-21T08:51:48;13.60;1.00
774;DHT22;370;48.810;9.150;2024-02-21T08:54:14;13.20;1.00
774;DHT22;370;48.810;9.150;2024-02-21T08:56:42;13.00;1.00
774;DHT22;370;48.810;9.150;2024-02-21T08:59:10;12.70;1.00
774;DHT22;370;48.810;9.150;2024-02-21T09:01:37;12.60;1.00
774;DHT22;370;48.810;9.150;2024-02-21T09:04:04;12.50;1.00
774;DHT22;370;48.810;9.150;2024-02-21T09:06:31;12.60;1.00
774;DHT22;370;48.810;9.150;2024-02-21T09:08:59;12.60;1.00
774;DHT22;370;48.810;9.150;2024-02-21T09:11:25;12.90;1.00
774;DHT22;370;48.810;9.150;2024-02-21T09:13:53;13.00;1.00
774;DHT22;370;48.810;9.150;2024-02-21T09:16:21;13.20;1.00
774;DHT22;370;48.810;9.150;2024-02-21T09:18:48;13.20;1.00
774;DHT22;370;48.810;9.150;2024-02-21T09:21:15;13.30;1.00
774;DHT22;370;48.810;9.150;2024-02-21T09:23:42;13.40;1.00
774;DHT22;370;48.810;9.150;2024-02-21T09:26:08;13.50;1.00
774;DHT22;370;48.810;9.150;2024-02-21T09:28:39;13.90;1.00
774;DHT22;370;48.810;9.150;2024-02-21T09:31:06;14.20;1.00
774;DHT22;370;48.810;9.150;2024-02-21T09:33:34;14.30;1.00
774;DHT22;370;48.810;9.150;2024-02-21T09:36:01;14.70;1.00
774;DHT22;370;48.810;9.150;2024-02-21T09:38:28;15.40;1.00
774;DHT22;370;48.810;9.150;2024-02-21T09:40:59;16.00;1.00
774;DHT22;370;48.810;9.150;2024-02-21T09:43:27;16.80;1.00
774;DHT22;370;48.810;9.150;2024-02-21T09:45:55;17.60;1.00
774;DHT22;370;48.810;9.150;2024-02-21T09:48:30;18.70;1.00
774;DHT22;370;48.810;9.150;2024-02-21T09:51:04;19.80;1.00
774;DHT22;370;48.810;9.150;2024-02-21T09:53:32;20.60;1.00
774;DHT22;370;48.810;9.150;2024-02-21T09:56:00;20.90;1.00
774;DHT22;370;48.810;9.150;2024-02-21T09:58:29;21.60;1.00
774;DHT22;370;48.810;9.150;2024-02-21T10:00:55;22.70;1.00
774;DHT22;370;48.810;9.150;2024-02-21T10:03:22;23.90;1.00
774;DHT22;370;48.810;9.150;2024-02-21T10:05:49;25.30;1.00
774;DHT22;370;48.810;9.150;2024-02-21T10:08:20;26.10;1.00
774;DHT22;370;48.810;9.150;2024-02-21T10:10:46;25.30;1.00
774;DHT22;370;48.810;9.150;2024-02-21T10:13:24;24.60;1.00
774;DHT22;370;48.810;9.150;2024-02-21T10:16:01;25.00;1.00
774;DHT22;370;48.810;9.150;2024-02-21T10:18:28;25.40;1.00
774;DHT22;370;48.810;9.150;2024-02-21T10:21:00;25.10;1.00
774;DHT22;370;48.810;9.150;2024-02-21T10:23:29;25.40;1.00
774;DHT22;370;48.810;9.150;2024-02-21T10:26:05;24.60;1.00
774;DHT22;370;48.810;9.150;2024-02-21T10:28:31;23.30;1.00
774;DHT22;370;48.810;9.150;2024-02-21T10:30:58;22.00;1.00
774;DHT22;370;48.810;9.150;2024-02-21T10:33:25;21.20;1.00
774;DHT22;370;48.810;9.150;2024-02-21T10:35:53;21.40;1.00
774;DHT22;370;48.810;9.150;2024-02-21T10:38:20;21.80;1.00
774;DHT22;370;48.810;9.150;2024-02-21T10:40:49;21.30;1.00
774;DHT22;370;48.810;9.150;2024-02-21T10:43:18;20.80;1.00
774;DHT22;370;48.810;9.150;2024-02-21T10:45:47;19.80;1.00
774;DHT22;370;48.810;9.150;2024-02-21T10:48:14;19.40;1.00
774;DHT22;370;48.810;9.150;2024-02-21T10:50:52;18.80;1.00
774;DHT22;370;48.810;9.150;2024-02-21T10:53:24;18.70;1.00
774;DHT22;370;48.810;9.150;2024-02-21T10:56:01;19.00;1.00
774;DHT22;370;48.810;9.150;2024-02-21T10:58:34;18.10;1.00
774;DHT22;370;48.810;9.150;2024-02-21T11:01:02;17.80;1.00
774;DHT22;370;48.810;9.150;2024-02-21T11:03:30;18.00;1.00
774;DHT22;370;48.810;9.150;2024-02-21T11:05:58;18.40;1.00
774;DHT22;370;48.810;9.150;2024-02-21T11:08:25;18.50;1.00
774;DHT22;370;48.810;9.150;2024-02-21T11:10:59;18.80;1.00
774;DHT22;370;48.810;9.150;2024-02-21T11:13:32;19.50;1.00
774;DHT22;370;48.810;9.150;2024-02-21T11:16:08;20.40;1.00
774;DHT22;370;48.810;9.150;2024-02-21T11:18:36;20.80;1.00
774;DHT22;370;48.810;9.150;2024-02-21T11:21:03;20.70;1.00
774;DHT22;370;48.810;9.150;2024-02-21T11:23:31;20.90;1.00
774;DHT22;370;48.810;9.150;2024-02-21T11:26:06;20.40;1.00
774;DHT22;370;48.810;9.150;2024-02-21T11:28:33;20.60;1.00
774;DHT22;370;48.810;9.150;2024-02-21T11:31:08;21.00;1.00
774;DHT22;370;48.810;9.150;2024-02-21T11:33:35;20.80;1.00
774;DHT22;370;48.810;9.150;2024-02-21T11:36:05;21.00;1.00
774;DHT22;370;48.810;9.150;2024-02-21T11:38:32;21.30;1.00
774;DHT22;370;48.810;9.150;2024-02-21T11:40:59;20.90;1.00
774;DHT22;370;48.810;9.150;2024-02-21T11:43:27;20.90;1.00
774;DHT22;370;48.810;9.150;2024-02-21T11:45:59;20.60;1.00
774;DHT22;370;48.810;9.150;2024-02-21T11:48:26;21.10;1.00
774;DHT22;370;48.810;9.150;2024-02-21T11:50:54;21.70;1.00
774;DHT22;370;48.810;9.150;2024-02-21T11:53:21;21.70;1.00
774;DHT22;370;48.810;9.150;2024-02-21T11:55:49;21.60;1.00
774;DHT22;370;48.810;9.150;2024-02-21T11:58:16;21.70;1.00
774;DHT22;370;48.810;9.150;2024-02-21T12:00:44;21.30;1.00
774;DHT22;370;48.810;9.150;2024-02-21T12:03:10;21.20;1.00
774;DHT22;370;48.810;9.150;2024-02-21T12:05:37;21.00;1.00
774;DHT22;370;48.810;9.150;2024-02-21T12:08:04;20.60;1.00
774;DHT22;370;48.810;9.150;2024-02-21T12:10:31;20.20;1.00
774;DHT22;370;48.810;9.150;2024-02-21T12:13:06;20.20;1.00
774;DHT22;370;48.810;9.150;2024-02-21T12:15:33;20.60;1.00
774;DHT22;370;48.810;9.150;2024-02-21T12:18:01;20.30;1.00
774;DHT22;370;48.810;9.150;2024-02-21T12:20:28;19.80;1.00
774;DHT22;370;48.810;9.150;2024-02-21T12:22:56;19.90;1.00
774;DHT22;370;48.810;9.150;2024-02-21T12:25:24;20.00;1.00
774;DHT22;370;48.810;9.150;2024-02-21T12:27:52;19.80;1.00
774;DHT22;370;48.810;9.150;2024-02-21T12:30:19;20.40;1.00
774;DHT22;370;48.810;9.150;2024-02-21T12:36:10;20.80;1.00
774;DHT22;370;48.810;9.150;2024-02-21T12:38:37;21.30;1.00
774;DHT22;370;48.810;9.150;2024-02-21T12:41:04;21.20;1.00
774;DHT22;370;48.810;9.150;2024-02-21T12:43:30;21.10;1.00
774;DHT22;370;48.810;9.150;2024-02-21T12:45:57;20.80;1.00
774;DHT22;370;48.810;9.150;2024-02-21T12:48:24;20.50;1.00
774;DHT22;370;48.810;9.150;2024-02-21T12:50:51;20.70;1.00
774;DHT22;370;48.810;9.150;2024-02-21T12:53:19;20.80;1.00
774;DHT22;370;48.810;9.150;2024-02-21T12:59:10;20.60;1.00
774;DHT22;370;48.810;9.150;2024-02-21T13:01:37;20.80;1.00
774;DHT22;370;48.810;9.150;2024-02-21T13:04:04;20.40;1.00
774;DHT22;370;48.810;9.150;2024-02-21T13:06:30;20.40;1.00
774;DHT22;370;48.810;9.150;2024-02-21T13:08:58;20.40;1.00
774;DHT22;370;48.810;9.150;2024-02-21T13:11:29;20.20;1.00
774;DHT22;370;48.810;9.150;2024-02-21T13:13:56;19.80;1.00
774;DHT22;370;48.810;9.150;2024-02-21T13:16:23;19.80;1.00
774;DHT22;370;48.810;9.150;2024-02-21T13:18:51;19.60;1.00
774;DHT22;370;48.810;9.150;2024-02-21T13:21:18;19.50;1.00
774;DHT22;370;48.810;9.150;2024-02-21T13:23:45;19.60;1.00
774;DHT22;370;48.810;9.150;2024-02-21T13:29:36;19.40;1.00
774;DHT22;370;48.810;9.150;2024-02-21T13:32:02;19.20;1.00
774;DHT22;370;48.810;9.150;2024-02-21T13:34:29;18.90;1.00
774;DHT22;370;48.810;9.150;2024-02-21T13:36:56;18.50;1.00
774;DHT22;370;48.810;9.150;2024-02-21T13:39:24;18.40;1.00
774;DHT22;370;48.810;9.150;2024-02-21T13:41:51;18.10;1.00
774;DHT22;370;48.810;9.150;2024-02-21T13:44:18;17.90;1.00
774;DHT22;370;48.810;9.150;2024-02-21T13:46:46;17.50;1.00
774;DHT22;370;48.810;9.150;2024-02-21T13:49:12;17.50;1.00
774;DHT22;370;48.810;9.150;2024-02-21T13:51:39;17.50;1.00
774;DHT22;370;48.810;9.150;2024-02-21T13:54:08;17.50;1.00
774;DHT22;370;48.810;9.150;2024-02-21T13:56:35;17.40;1.00
774;DHT22;370;48.810;9.150;2024-02-21T13:59:02;17.20;1.00
774;DHT22;370;48.810;9.150;2024-02-21T14:01:30;17.00;1.00
774;DHT22;370;48.810;9.150;2024-02-21T14:03:58;16.90;1.00
774;DHT22;370;48.810;9.150;2024-02-21T14:06:25;16.90;1.00
774;DHT22;370;48.810;9.150;2024-02-21T14:08:52;16.80;1.00
774;DHT22;370;48.810;9.150;2024-02-21T14:11:19;16.90;1.00
774;DHT22;370;48.810;9.150;2024-02-21T14:13:46;16.80;1.00
774;DHT22;370;48.810;9.150;2024-02-21T14:16:13;16.70;1.00
774;DHT22;370;48.810;9.150;2024-02-21T14:18:39;16.70;1.00
774;DHT22;370;48.810;9.150;2024-02-21T14:21:09;16.70;1.00
774;DHT22;370;48.810;9.150;2024-02-21T14:23:37;16.80;1.00
774;DHT22;370;48.810;9.150;2024-02-21T14:26:04;16.70;1.00
774;DHT22;370;48.810;9.150;2024-02-21T14:28:32;16.60;1.00
774;DHT22;370;48.810;9.150;2024-02-21T14:30:59;16.60;1.00
774;DHT22;370;48.810;9.150;2024-02-21T14:33:26;16.30;1.00
774;DHT22;370;48.810;9.150;2024-02-21T14:35:52;16.20;1.00
774;DHT22;370;48.810;9.150;2024-02-21T14:38:20;16.00;1.00
774;DHT22;370;48.810;9.150;2024-02-21T14:40:47;16.00;1.00
774;DHT22;370;48.810;9.150;2024-02-21T14:43:14;16.00;1.00
774;DHT22;370;48.810;9.150;2024-02-21T14:45:41;15.90;1.00
774;DHT22;370;48.810;9.150;2024-02-21T14:48:08;15.90;1.00
774;DHT22;370;48.810;9.150;2024-02-21T14:50:35;16.00;1.00
774;DHT22;370;48.810;9.150;2024-02-21T14:53:02;15.80;1.00
774;DHT22;370;48.810;9.150;2024-02-21T14:55:30;15.70;1.00
774;DHT22;370;48.810;9.150;2024-02-21T14:57:56;15.60;1.00
774;DHT22;370;48.810;9.150;2024-02-21T15:00:23;15.60;1.00
774;DHT22;370;48.810;9.150;2024-02-21T15:02:55;15.40;1.00
774;DHT22;370;48.810;9.150;2024-02-21T15:05:22;15.40;1.00
774;DHT22;370;48.810;9.150;2024-02-21T15:07:49;15.30;1.00
774;DHT22;370;48.810;9.150;2024-02-21T15:10:17;15.20;1.00
774;DHT22;370;48.810;9.150;2024-02-21T15:12:46;15.20;1.00
774;DHT22;370;48.810;9.150;2024-02-21T15:15:13;15.10;1.00
774;DHT22;370;48.810;9.150;2024-02-21T15:17:40;15.00;1.00
774;DHT22;370;48.810;9.150;2024-02-21T15:20:08;15.10;1.00
774;DHT22;370;48.810;9.150;2024-02-21T15:22:38;14.90;1.00
774;DHT22;370;48.810;9.150;2024-02-21T15:25:05;14.80;1.00
774;DHT22;370;48.810;9.150;2024-02-21T15:27:32;14.80;1.00
774;DHT22;370;48.810;9.150;2024-02-21T15:30:03;14.70;1.00
774;DHT22;370;48.810;9.150;2024-02-21T15:32:31;14.70;1.00
774;DHT22;370;48.810;9.150;2024-02-21T15:34:58;14.70;1.00
774;DHT22;370;48.810;9.150;2024-02-21T15:37:24;14.70;1.00
774;DHT22;370;48.810;9.150;2024-02-21T15:39:51;14.70;1.00
774;DHT22;370;48.810;9.150;2024-02-21T15:42:18;14.70;1.00
774;DHT22;370;48.810;9.150;2024-02-21T15:44:46;14.60;1.00
774;DHT22;370;48.810;9.150;2024-02-21T15:47:14;14.50;1.00
774;DHT22;370;48.810;9.150;2024-02-21T15:49:44;14.50;1.00
774;DHT22;370;48.810;9.150;2024-02-21T15:52:11;14.50;1.00
774;DHT22;370;48.810;9.150;2024-02-21T15:54:38;14.40;1.00
774;DHT22;370;48.810;9.150;2024-02-21T15:57:05;14.30;1.00
774;DHT22;370;48.810;9.150;2024-02-21T15:59:33;14.20;1.00
774;DHT22;370;48.810;9.150;2024-02-21T16:02:00;14.20;1.00
774;DHT22;370;48.810;9.150;2024-02-21T16:04:28;14.20;1.00
774;DHT22;370;48.810;9.150;2024-02-21T16:06:55;14.10;1.00
774;DHT22;370;48.810;9.150;2024-02-21T16:09:25;14.20;1.00
774;DHT22;370;48.810;9.150;2024-02-21T16:11:54;14.20;1.00
774;DHT22;370;48.810;9.150;2024-02-21T16:14:21;14.10;1.00
774;DHT22;370;48.810;9.150;2024-02-21T16:16:48;14.10;1.00
774;DHT22;370;48.810;9.150;2024-02-21T16:19:15;14.00;1.00
774;DHT22;370;48.810;9.150;2024-02-21T16:21:43;13.80;1.00
774;DHT22;370;48.810;9.150;2024-02-21T16:24:11;13.70;1.00
774;DHT22;370;48.810;9.150;2024-02-21T16:26:38;13.80;1.00
774;DHT22;370;48.810;9.150;2024-02-21T16:29:05;13.70;1.00
774;DHT22;370;48.810;9.150;2024-02-21T16:31:33;13.60;1.00
774;DHT22;370;48.810;9.150;2024-02-21T16:34:01;13.40;1.00
774;DHT22;370;48.810;9.150;2024-02-21T16:36:28;13.40;1.00
774;DHT22;370;48.810;9.150;2024-02-21T16:38:59;13.40;1.00
774;DHT22;370;48.810;9.150;2024-02-21T16:41:28;13.10;1.00
774;DHT22;370;48.810;9.150;2024-02-21T16:43:55;13.00;1.00
774;DHT22;370;48.810;9.150;2024-02-21T16:46:21;12.90;1.00
774;DHT22;370;48.810;9.150;2024-02-21T16:48:48;13.00;1.00
774;DHT22;370;48.810;9.150;2024-02-21T16:51:15;12.90;1.00
774;DHT22;370;48.810;9.150;2024-02-21T16:53:42;12.80;1.00
774;DHT22;370;48.810;9.150;2024-02-21T16:56:10;12.70;1.00
774;DHT22;370;48.810;9.150;2024-02-21T16:58:37;12.60;1.00
774;DHT22;370;48.810;9.150;2024-02-21T17:01:04;12.60;1.00
774;DHT22;370;48.810;9.150;2024-02-21T17:03:32;12.60;1.00
774;DHT22;370;48.810;9.150;2024-02-21T17:05:59;12.60;1.00
774;DHT22;370;48.810;9.150;2024-02-21T17:08:26;12.60;1.00
774;DHT22;370;48.810;9.150;2024-02-21T17:10:53;12.60;1.00